Time;durP1;ratioP1;P1;durP2;ratioP2;P2;SDS_P1;SDS_P2;PMS_P1;PMS_P2;Temp;Humidity;BMP_temperature;BMP_pressure;BME280_temperature;BME280_humidity;BME280_pressure;Samples;Min_cycle;Max_cycle;Signal;HPM_P1;HPM_P2
2024/04/02 00:00:34;;;;;;;0.70;0.33;;;;;;;6.82;100.00;94896.09;5037024;28;20198;-90
2024/04/02 00:03:01;;;;;;;0.47;0.40;;;;;;;6.83;100.00;94899.53;5038092;28;20198;-90
2024/04/02 00:05:28;;;;;;;0.63;0.40;;;;;;;6.69;100.00;94892.78;5042186;28;20197;-87
2024/04/02 00:07:54;;;;;;;1.20;0.50;;;;;;;6.74;100.00;94898.19;5059253;28;20202;-88
2024/04/02 00:10:20;;;;;;;0.53;0.30;;;;;;;6.69;100.00;94905.88;5051734;28;20190;-89
2024/04/02 00:12:49;;;;;;;0.60;0.40;;;;;;;6.84;100.00;94904.53;5036182;28;20240;-90
2024/04/02 00:15:14;;;;;;;0.40;0.30;;;;;;;6.83;100.00;94904.78;5034403;28;20280;-89
2024/04/02 00:17:42;;;;;;;0.30;0.30;;;;;;;6.79;100.00;94914.06;5036083;28;20206;-90
2024/04/02 00:20:08;;;;;;;0.80;0.30;;;;;;;6.79;100.00;94912.22;5034794;28;20229;-90
2024/04/02 00:22:35;;;;;;;0.77;0.50;;;;;;;6.75;100.00;94912.88;5041902;28;20194;-90
2024/04/02 00:25:01;;;;;;;0.20;0.20;;;;;;;6.62;100.00;94921.63;5033032;28;20647;-90
2024/04/02 00:27:28;;;;;;;0.30;0.30;;;;;;;6.68;100.00;94923.38;5033411;28;20236;-90
2024/04/02 00:29:55;;;;;;;0.93;0.37;;;;;;;6.69;100.00;94934.66;5033689;28;20198;-90
2024/04/02 00:32:23;;;;;;;0.47;0.40;;;;;;;6.69;100.00;94937.28;5033455;28;20198;-90
2024/04/02 00:34:48;;;;;;;0.90;0.60;;;;;;;6.66;100.00;94942.91;5032944;28;20210;-90
2024/04/02 00:37:15;;;;;;;0.20;0.20;;;;;;;6.62;100.00;94936.50;5033385;28;20231;-90
2024/04/02 00:39:43;;;;;;;0.50;0.30;;;;;;;6.56;100.00;94942.59;5033115;28;20197;-90
2024/04/02 00:42:10;;;;;;;0.57;0.53;;;;;;;6.67;100.00;94944.53;5033198;28;20190;-89
2024/04/02 00:44:35;;;;;;;1.00;0.80;;;;;;;6.60;100.00;94947.19;5032703;28;20256;-90
2024/04/02 00:47:04;;;;;;;0.70;0.40;;;;;;;6.57;100.00;94950.22;5033354;28;20215;-90
2024/04/02 00:49:30;;;;;;;1.03;0.30;;;;;;;6.52;100.00;94946.63;5033184;28;20201;-90
2024/04/02 00:51:57;;;;;;;0.40;0.40;;;;;;;6.70;100.00;94951.94;5032699;28;20224;-90
2024/04/02 00:54:22;;;;;;;0.50;0.40;;;;;;;6.49;100.00;94949.66;5032415;28;20206;-90
2024/04/02 00:56:49;;;;;;;1.67;0.50;;;;;;;6.49;100.00;94957.50;5032718;28;20632;-90
2024/04/02 00:59:15;;;;;;;2.00;0.53;;;;;;;6.53;100.00;94956.88;5034106;28;20524;-90
2024/04/02 01:01:42;;;;;;;0.83;0.63;;;;;;;6.63;100.00;94969.50;5032973;28;20202;-90
2024/04/02 01:04:10;;;;;;;1.37;0.53;;;;;;;6.57;100.00;94971.16;5031516;28;20210;-90
2024/04/02 01:06:37;;;;;;;0.57;0.50;;;;;;;6.57;100.00;94968.53;5032665;28;20213;-89
2024/04/02 01:09:04;;;;;;;0.50;0.50;;;;;;;6.53;100.00;94977.00;5033030;28;20547;-89
2024/04/02 01:11:30;;;;;;;0.70;0.40;;;;;;;6.69;100.00;94977.31;5032777;28;20201;-90
2024/04/02 01:13:56;;;;;;;0.43;0.43;;;;;;;6.60;100.00;94985.63;5032242;28;20662;-90
2024/04/02 01:16:23;;;;;;;0.40;0.30;;;;;;;6.57;100.00;94984.22;5032465;28;20297;-90
2024/04/02 01:18:49;;;;;;;0.87;0.40;;;;;;;6.72;100.00;94987.34;5032624;28;20194;-90
2024/04/02 01:21:17;;;;;;;0.70;0.50;;;;;;;6.49;100.00;94988.91;5032636;28;20255;-90
2024/04/02 01:23:43;;;;;;;0.40;0.40;;;;;;;6.62;100.00;94996.69;5032152;28;20289;-90
2024/04/02 01:26:11;;;;;;;0.50;0.50;;;;;;;6.61;100.00;95001.09;5032502;28;20201;-91
2024/04/02 01:28:37;;;;;;;1.27;0.40;;;;;;;6.77;100.00;94991.97;5033865;28;20217;-90
2024/04/02 01:31:04;;;;;;;0.90;0.40;;;;;;;6.76;100.00;94993.00;5033691;28;20186;-89
2024/04/02 01:33:31;;;;;;;0.60;0.50;;;;;;;6.92;100.00;94997.72;5031891;28;20355;-89
2024/04/02 01:35:58;;;;;;;0.67;0.47;;;;;;;6.84;100.00;94987.50;5032458;28;20267;-90
2024/04/02 01:38:24;;;;;;;0.70;0.47;;;;;;;6.75;100.00;94988.75;5033860;28;20209;-89
2024/04/02 01:40:51;;;;;;;0.50;0.40;;;;;;;6.85;100.00;94994.34;5032177;28;20213;-89
2024/04/02 01:43:18;;;;;;;0.53;0.33;;;;;;;6.86;100.00;94993.34;5034048;28;20186;-90
2024/04/02 01:45:45;;;;;;;0.50;0.50;;;;;;;6.93;100.00;95002.75;5032212;28;20221;-90
2024/04/02 01:48:11;;;;;;;2.50;0.43;;;;;;;6.92;100.00;95002.97;5032583;28;20210;-89
2024/04/02 01:50:38;;;;;;;0.43;0.33;;;;;;;6.95;100.00;95005.16;5032397;28;20613;-90
2024/04/02 01:53:04;;;;;;;0.33;0.30;;;;;;;6.92;100.00;95003.78;5032373;28;20206;-89
2024/04/02 01:55:30;;;;;;;0.60;0.50;;;;;;;6.89;100.00;94998.13;5031870;28;20312;-90
2024/04/02 01:57:56;;;;;;;0.60;0.40;;;;;;;7.04;100.00;95003.09;5033736;28;20218;-90
2024/04/02 02:00:25;;;;;;;3.13;0.47;;;;;;;7.07;100.00;95006.06;5033733;28;20190;-90
2024/04/02 02:02:51;;;;;;;0.30;0.30;;;;;;;7.02;100.00;95010.34;5032440;28;20229;-89
2024/04/02 02:05:18;;;;;;;0.40;0.40;;;;;;;7.03;100.00;95017.19;5032039;28;20190;-89
2024/04/02 02:07:43;;;;;;;1.30;0.30;;;;;;;6.98;100.00;95018.63;5032217;28;20260;-90
2024/04/02 02:10:12;;;;;;;0.97;0.47;;;;;;;7.17;100.00;95014.28;5031989;28;20202;-89
2024/04/02 02:12:37;;;;;;;0.50;0.50;;;;;;;7.17;100.00;95023.94;5034420;28;20244;-90
2024/04/02 02:15:05;;;;;;;1.37;0.60;;;;;;;7.18;100.00;95028.19;5032497;28;20305;-89
2024/04/02 02:17:32;;;;;;;0.70;0.40;;;;;;;7.14;100.00;95027.78;5037283;28;20218;-90
2024/04/02 02:19:59;;;;;;;0.73;0.30;;;;;;;7.19;100.00;95029.81;5036329;28;20193;-90
2024/04/02 02:22:25;;;;;;;1.07;0.20;;;;;;;7.12;100.00;95029.03;5035946;28;20190;-89
2024/04/02 02:24:52;;;;;;;0.63;0.30;;;;;;;7.14;100.00;95033.03;5035541;28;20739;-90
2024/04/02 02:27:17;;;;;;;0.47;0.47;;;;;;;7.07;100.00;95036.72;5036200;28;20210;-90
2024/04/02 02:29:44;;;;;;;0.97;0.43;;;;;;;7.00;100.00;95035.94;5036249;28;20552;-90
2024/04/02 02:32:10;;;;;;;0.50;0.50;;;;;;;6.89;100.00;95048.69;5036336;28;20213;-89
2024/04/02 02:34:38;;;;;;;1.13;0.43;;;;;;;6.89;100.00;95035.59;5036136;28;20194;-89
2024/04/02 02:37:04;;;;;;;0.53;0.50;;;;;;;6.83;100.00;95040.88;5040664;28;20214;-89
2024/04/02 02:39:31;;;;;;;0.30;0.30;;;;;;;6.97;100.00;95032.75;5053674;28;20225;-90
2024/04/02 02:41:57;;;;;;;1.10;0.50;;;;;;;6.88;100.00;95043.66;5042645;28;20232;-90
2024/04/02 02:44:23;;;;;;;0.30;0.20;;;;;;;6.95;100.00;95047.81;5035054;28;20194;-90
2024/04/02 02:46:49;;;;;;;0.50;0.37;;;;;;;6.79;100.00;95055.38;5035499;28;20276;-90
2024/04/02 02:49:16;;;;;;;0.60;0.30;;;;;;;6.82;100.00;95050.53;5035774;28;20654;-89
2024/04/02 02:51:43;;;;;;;0.80;0.30;;;;;;;6.85;100.00;95055.34;5035600;28;20609;-90
2024/04/02 02:54:10;;;;;;;0.47;0.37;;;;;;;6.88;100.00;95054.13;5035045;28;20206;-89
2024/04/02 02:56:36;;;;;;;0.33;0.33;;;;;;;6.81;100.00;95058.59;5035038;28;20225;-90
2024/04/02 02:59:02;;;;;;;1.90;0.70;;;;;;;6.93;100.00;95056.94;5035186;28;20194;-90
2024/04/02 03:01:28;;;;;;;0.30;0.30;;;;;;;6.92;100.00;95058.75;5035264;28;20252;-90
2024/04/02 03:03:55;;;;;;;1.63;0.60;;;;;;;6.86;100.00;95058.78;5034547;28;20194;-90
2024/04/02 03:06:21;;;;;;;0.37;0.30;;;;;;;6.76;100.00;95053.97;5035275;28;20690;-90
2024/04/02 03:08:49;;;;;;;0.23;0.20;;;;;;;6.82;100.00;95060.19;5034790;28;20194;-90
2024/04/02 03:11:15;;;;;;;0.30;0.30;;;;;;;6.97;100.00;95064.16;5034967;28;20190;-90
2024/04/02 03:13:42;;;;;;;0.30;0.20;;;;;;;6.98;100.00;95067.56;5035577;28;20252;-90
2024/04/02 03:16:08;;;;;;;1.07;0.40;;;;;;;6.97;100.00;95072.00;5036070;28;20222;-90
2024/04/02 03:18:35;;;;;;;0.53;0.30;;;;;;;7.05;100.00;95073.56;5036280;28;20190;-89
2024/04/02 03:21:01;;;;;;;1.13;0.37;;;;;;;6.94;100.00;95080.28;5034965;28;20206;-90
2024/04/02 03:23:28;;;;;;;0.60;0.50;;;;;;;7.02;100.00;95078.44;5035854;28;20182;-90
2024/04/02 03:25:56;;;;;;;1.20;0.50;;;;;;;7.05;100.00;95078.78;5034482;28;20198;-90
2024/04/02 03:28:24;;;;;;;0.67;0.40;;;;;;;6.94;100.00;95079.47;5036044;28;20236;-89
2024/04/02 03:30:50;;;;;;;0.50;0.40;;;;;;;7.15;100.00;95083.59;5034648;28;20203;-90
2024/04/02 03:33:17;;;;;;;1.17;0.50;;;;;;;7.23;100.00;95073.69;5036785;28;20273;-89
2024/04/02 03:35:43;;;;;;;0.60;0.50;;;;;;;7.22;100.00;95071.25;5034133;28;20221;-90
2024/04/02 03:38:10;;;;;;;0.40;0.40;;;;;;;7.21;100.00;95074.91;5036293;28;20732;-89
2024/04/02 03:40:37;;;;;;;0.40;0.33;;;;;;;7.21;100.00;95082.75;5034399;28;20249;-89
2024/04/02 03:43:06;;;;;;;1.33;0.87;;;;;;;7.19;100.00;95082.19;5036131;28;20197;-90
2024/04/02 03:45:32;;;;;;;3.80;0.53;;;;;;;7.27;100.00;95077.47;5034521;28;20202;-89
2024/04/02 03:47:58;;;;;;;0.70;0.53;;;;;;;7.17;100.00;95084.97;5035293;28;20368;-89
2024/04/02 03:50:25;;;;;;;1.60;0.30;;;;;;;7.11;100.00;95088.44;5034970;28;20215;-89
2024/04/02 03:52:51;;;;;;;0.20;0.20;;;;;;;7.12;100.00;95097.13;5035031;28;20198;-90
2024/04/02 03:55:18;;;;;;;0.43;0.40;;;;;;;7.09;100.00;95098.34;5035628;28;20219;-89
2024/04/02 03:57:44;;;;;;;0.30;0.30;;;;;;;7.06;100.00;95093.50;5035302;28;20214;-90
2024/04/02 04:00:13;;;;;;;0.40;0.20;;;;;;;7.04;100.00;95086.88;5035068;28;20256;-89
2024/04/02 04:02:39;;;;;;;0.47;0.30;;;;;;;7.05;100.00;95094.50;5036135;28;20301;-89
2024/04/02 04:05:06;;;;;;;0.97;0.30;;;;;;;6.84;100.00;95108.69;5034534;28;20240;-89
2024/04/02 04:07:32;;;;;;;0.30;0.30;;;;;;;6.74;100.00;95099.69;5035341;28;20264;-89
2024/04/02 04:09:59;;;;;;;0.50;0.40;;;;;;;6.70;100.00;95111.56;5034914;28;20194;-89
2024/04/02 04:12:25;;;;;;;0.43;0.40;;;;;;;6.69;100.00;95105.53;5034557;28;20716;-89
2024/04/02 04:14:52;;;;;;;1.83;0.40;;;;;;;6.60;100.00;95108.59;5034072;28;20206;-89
2024/04/02 04:17:20;;;;;;;1.93;0.50;;;;;;;6.69;100.00;95109.97;5035028;28;20236;-89
2024/04/02 04:19:46;;;;;;;0.83;0.30;;;;;;;6.59;100.00;95115.63;5036649;28;20190;-90
2024/04/02 04:22:12;;;;;;;0.20;0.20;;;;;;;6.52;100.00;95119.25;5034900;28;20198;-89
2024/04/02 04:24:39;;;;;;;0.30;0.30;;;;;;;6.68;100.00;95124.84;5035790;28;20255;-89
2024/04/02 04:27:05;;;;;;;0.40;0.40;;;;;;;6.73;100.00;95132.09;5034573;28;20226;-89
2024/04/02 04:29:32;;;;;;;0.60;0.50;;;;;;;6.67;100.00;95133.72;5034692;28;20201;-89
2024/04/02 04:31:57;;;;;;;0.40;0.20;;;;;;;6.69;100.00;95141.38;5034748;28;20202;-90
2024/04/02 04:34:26;;;;;;;0.63;0.47;;;;;;;6.58;100.00;95147.25;5034477;28;20205;-90
2024/04/02 04:36:52;;;;;;;0.33;0.30;;;;;;;6.66;100.00;95147.81;5035649;28;20626;-90
2024/04/02 04:39:20;;;;;;;1.17;0.30;;;;;;;6.63;100.00;95155.25;5036027;28;20586;-89
2024/04/02 04:41:45;;;;;;;0.70;0.30;;;;;;;6.57;100.00;95161.31;5034865;28;20194;-90
2024/04/02 04:44:12;;;;;;;0.60;0.30;;;;;;;6.68;100.00;95158.06;5035469;28;20559;-90
2024/04/02 04:46:38;;;;;;;0.50;0.30;;;;;;;6.68;100.00;95158.88;5034860;28;20206;-90
2024/04/02 04:49:05;;;;;;;0.50;0.40;;;;;;;6.62;100.00;95154.47;5034865;28;20198;-90
2024/04/02 04:51:32;;;;;;;0.50;0.40;;;;;;;6.68;100.00;95156.25;5035333;28;20194;-90
2024/04/02 04:53:59;;;;;;;0.60;0.33;;;;;;;6.58;100.00;95163.72;5037224;28;20236;-90
2024/04/02 04:56:25;;;;;;;0.70;0.20;;;;;;;6.61;100.00;95168.56;5039228;28;20279;-90
2024/04/02 04:58:51;;;;;;;0.60;0.30;;;;;;;6.59;100.00;95170.56;5049718;28;20191;-89
2024/04/02 05:01:17;;;;;;;2.20;0.40;;;;;;;6.52;100.00;95172.41;5040546;28;20190;-91
2024/04/02 05:03:44;;;;;;;0.40;0.30;;;;;;;6.51;100.00;95172.59;5032947;28;20725;-90
2024/04/02 05:06:10;;;;;;;0.80;0.30;;;;;;;6.43;100.00;95173.63;5034958;28;20206;-90
2024/04/02 05:08:38;;;;;;;0.30;0.30;;;;;;;6.42;100.00;95182.47;5037127;28;20190;-89
2024/04/02 05:11:05;;;;;;;3.93;0.43;;;;;;;6.45;100.00;95176.03;5039494;28;20201;-89
2024/04/02 05:13:32;;;;;;;0.73;0.50;;;;;;;6.50;100.00;95186.69;5034287;28;20203;-89
2024/04/02 05:15:58;;;;;;;0.20;0.20;;;;;;;6.56;100.00;95186.66;5036042;28;20264;-88
2024/04/02 05:18:25;;;;;;;0.43;0.30;;;;;;;6.52;100.00;95189.91;5037443;28;20218;-89
2024/04/02 05:20:50;;;;;;;0.13;0.13;;;;;;;6.49;100.00;95198.16;5035271;28;20236;-88
2024/04/02 05:23:17;;;;;;;1.03;0.20;;;;;;;6.63;100.00;95202.34;5038538;28;20182;-89
2024/04/02 05:25:45;;;;;;;2.87;0.63;;;;;;;6.67;100.00;95204.38;5036887;28;20197;-89
2024/04/02 05:28:12;;;;;;;0.83;0.47;;;;;;;6.83;100.00;95205.75;5035840;28;20698;-90
2024/04/02 05:30:37;;;;;;;2.73;0.50;;;;;;;6.80;100.00;95206.16;5035169;28;20186;-89
2024/04/02 05:33:05;;;;;;;0.53;0.40;;;;;;;6.75;100.00;95205.97;5034396;28;20248;-90
2024/04/02 05:35:31;;;;;;;0.63;0.43;;;;;;;6.81;100.00;95203.31;5035484;28;20224;-89
2024/04/02 05:37:58;;;;;;;0.60;0.43;;;;;;;6.74;100.00;95213.03;5043737;28;20225;-89
2024/04/02 05:40:24;;;;;;;0.30;0.30;;;;;;;6.80;100.00;95214.00;5055197;28;20189;-89
2024/04/02 05:42:52;;;;;;;2.27;0.60;;;;;;;6.93;100.00;95219.22;5055392;28;20198;-90
2024/04/02 05:45:18;;;;;;;1.23;0.30;;;;;;;7.00;100.00;95220.03;5057381;28;20597;-89
2024/04/02 05:47:45;;;;;;;1.67;0.50;;;;;;;6.94;100.00;95215.59;5056657;28;20239;-89
2024/04/02 05:50:11;;;;;;;0.93;0.50;;;;;;;7.00;100.00;95227.88;5054405;28;20212;-89
2024/04/02 05:52:37;;;;;;;1.13;0.60;;;;;;;7.00;100.00;95227.88;5054911;28;20197;-89
2024/04/02 05:55:04;;;;;;;0.40;0.30;;;;;;;7.04;100.00;95228.25;5058214;28;20251;-89
2024/04/02 05:57:31;;;;;;;0.97;0.70;;;;;;;7.11;100.00;95236.91;5067201;28;20221;-89
2024/04/02 05:59:58;;;;;;;3.27;0.53;;;;;;;7.04;100.00;95236.09;5055019;28;20205;-89
2024/04/02 06:02:25;;;;;;;0.83;0.33;;;;;;;7.09;100.00;95246.78;5055272;28;20193;-89
2024/04/02 06:04:51;;;;;;;0.50;0.50;;;;;;;7.14;100.00;95250.38;5052327;28;20232;-88
2024/04/02 06:07:18;;;;;;;3.53;0.80;;;;;;;7.05;100.00;95262.06;5053768;28;20221;-89
2024/04/02 06:09:44;;;;;;;0.60;0.50;;;;;;;7.05;100.00;95267.31;5052293;28;20201;-88
2024/04/02 06:12:11;;;;;;;0.40;0.40;;;;;;;7.17;100.00;95275.34;5051982;28;20194;-88
2024/04/02 06:14:38;;;;;;;0.30;0.30;;;;;;;7.19;100.00;95274.13;5050755;28;20247;-88
2024/04/02 06:17:06;;;;;;;1.17;0.40;;;;;;;7.11;100.00;95279.59;5052973;28;20312;-89
2024/04/02 06:19:32;;;;;;;0.37;0.30;;;;;;;7.28;100.00;95277.34;5053175;28;20197;-89
2024/04/02 06:21:59;;;;;;;0.90;0.30;;;;;;;7.05;100.00;95283.03;5055973;28;20196;-89
2024/04/02 06:24:24;;;;;;;0.10;0.10;;;;;;;7.07;100.00;95285.47;5052753;28;20205;-89
2024/04/02 06:26:51;;;;;;;1.33;0.30;;;;;;;6.97;100.00;95291.09;5052969;28;20270;-88
2024/04/02 06:29:18;;;;;;;0.23;0.23;;;;;;;7.10;100.00;95290.25;5052875;28;20715;-88
2024/04/02 06:31:45;;;;;;;1.63;0.37;;;;;;;7.16;100.00;95287.66;5054674;28;20559;-89
2024/04/02 06:34:12;;;;;;;0.60;0.47;;;;;;;7.13;100.00;95300.34;5051154;28;20909;-88
2024/04/02 06:36:39;;;;;;;0.30;0.30;;;;;;;7.13;100.00;95289.88;5055363;28;20217;-88
2024/04/02 06:39:05;;;;;;;0.90;0.50;;;;;;;7.09;100.00;95302.56;5055668;28;20198;-88
2024/04/02 06:41:32;;;;;;;1.00;0.30;;;;;;;7.08;100.00;95297.53;5053333;28;20198;-89
2024/04/02 06:44:00;;;;;;;2.03;0.97;;;;;;;7.15;100.00;95307.00;5056850;28;20181;-89
2024/04/02 06:46:26;;;;;;;2.60;0.80;;;;;;;7.25;100.00;95307.38;5056359;28;20218;-90
2024/04/02 06:48:52;;;;;;;3.27;0.70;;;;;;;7.22;100.00;95299.91;5054962;28;20654;-87
2024/04/02 06:51:20;;;;;;;3.20;1.50;;;;;;;7.34;100.00;95303.53;5054362;28;20214;-87
2024/04/02 06:53:46;;;;;;;1.50;1.17;;;;;;;7.58;100.00;95309.91;5053191;28;20255;-87
2024/04/02 06:56:13;;;;;;;1.60;1.00;;;;;;;7.74;100.00;95309.44;5053284;28;20621;-87
2024/04/02 06:58:39;;;;;;;2.10;0.90;;;;;;;7.75;100.00;95311.03;5055495;28;20202;-86
2024/04/02 07:01:06;;;;;;;5.37;1.37;;;;;;;7.68;100.00;95319.97;5056015;28;20204;-87
2024/04/02 07:03:31;;;;;;;2.20;1.40;;;;;;;7.86;100.00;95315.66;5059335;28;20764;-87
2024/04/02 07:05:58;;;;;;;2.73;1.20;;;;;;;7.91;100.00;95317.66;5057556;28;20215;-88
2024/04/02 07:08:25;;;;;;;2.47;0.80;;;;;;;8.04;100.00;95310.53;5057225;28;20217;-88
2024/04/02 07:11:03;;;;;;;3.63;2.40;;;;;;;8.32;100.00;95303.13;5056658;28;20666;-87
2024/04/02 07:13:29;;;;;;;2.10;1.07;;;;;;;8.40;100.00;95317.00;5057820;28;20225;-87
2024/04/02 07:15:56;;;;;;;0.77;0.40;;;;;;;8.46;100.00;95314.34;5058789;28;20229;-88
2024/04/02 07:18:21;;;;;;;3.53;0.80;;;;;;;8.58;100.00;95307.41;5058042;28;20343;-91
2024/04/02 07:20:58;;;;;;;2.77;1.77;;;;;;;8.58;100.00;95306.59;5057720;28;20656;-88
2024/04/02 07:23:25;;;;;;;2.60;0.70;;;;;;;8.50;100.00;95310.25;5059879;28;20220;-89
2024/04/02 07:25:52;;;;;;;2.37;0.70;;;;;;;8.61;100.00;95306.16;5057218;28;20559;-90
2024/04/02 07:28:18;;;;;;;2.87;0.40;;;;;;;8.57;100.00;95310.22;5058108;28;20215;-88
2024/04/02 07:30:45;;;;;;;1.17;0.53;;;;;;;8.45;100.00;95320.59;5056713;28;20201;-89
2024/04/02 07:33:11;;;;;;;4.47;0.80;;;;;;;8.33;100.00;95322.31;5056884;28;20190;-90
2024/04/02 07:35:39;;;;;;;2.67;0.80;;;;;;;8.26;100.00;95324.94;5055649;28;20259;-89
2024/04/02 07:38:05;;;;;;;1.43;0.70;;;;;;;8.14;100.00;95338.91;5056470;28;20279;-89
2024/04/02 07:40:33;;;;;;;1.03;0.80;;;;;;;8.14;100.00;95339.72;5056269;28;20677;-89
2024/04/02 07:42:59;;;;;;;3.93;0.60;;;;;;;8.23;100.00;95345.53;5057188;28;20185;-88
2024/04/02 07:45:25;;;;;;;2.43;0.70;;;;;;;8.23;100.00;95343.72;5057793;28;20603;-89
2024/04/02 07:47:51;;;;;;;1.80;0.80;;;;;;;8.14;100.00;95346.78;5057741;28;20286;-88
2024/04/02 07:50:18;;;;;;;2.77;1.00;;;;;;;8.24;100.00;95337.44;5058674;28;20208;-88
2024/04/02 07:52:44;;;;;;;6.40;1.30;;;;;;;8.16;100.00;95350.81;5057545;28;20200;-88
2024/04/02 07:55:11;;;;;;;3.13;0.93;;;;;;;8.24;100.00;95362.88;5059311;28;20190;-89
2024/04/02 07:57:38;;;;;;;4.80;2.97;;;;;;;8.37;100.00;95344.47;5059469;28;20222;-89
2024/04/02 08:00:06;;;;;;;2.17;0.90;;;;;;;8.27;100.00;95358.03;5059000;28;20688;-89
2024/04/02 08:02:32;;;;;;;1.03;0.60;;;;;;;8.13;100.00;95353.84;5058449;28;20251;-88
2024/04/02 08:04:59;;;;;;;4.93;0.60;;;;;;;8.05;100.00;95363.78;5057340;28;20650;-89
2024/04/02 08:07:25;;;;;;;0.87;0.70;;;;;;;8.13;100.00;95347.78;5058031;28;20205;-88
2024/04/02 08:09:52;;;;;;;1.17;0.60;;;;;;;8.22;100.00;95355.22;5059263;28;20247;-89
2024/04/02 08:12:18;;;;;;;3.30;1.13;;;;;;;8.34;100.00;95358.00;5057127;28;20255;-88
2024/04/02 08:14:46;;;;;;;5.73;1.43;;;;;;;8.47;100.00;95362.38;5056855;28;20197;-89
2024/04/02 08:17:15;;;;;;;1.27;0.70;;;;;;;8.59;100.00;95365.94;5057672;28;20588;-88
2024/04/02 08:19:42;;;;;;;2.33;0.97;;;;;;;8.60;100.00;95368.34;5058903;28;20657;-88
2024/04/02 08:22:08;;;;;;;0.63;0.40;;;;;;;8.67;100.00;95363.06;5056234;28;20262;-89
2024/04/02 08:24:35;;;;;;;3.93;0.70;;;;;;;8.88;100.00;95365.34;5057813;28;20198;-88
2024/04/02 08:27:00;;;;;;;3.67;0.57;;;;;;;8.97;100.00;95371.94;5056350;28;20205;-89
2024/04/02 08:29:28;;;;;;;3.33;0.80;;;;;;;9.01;100.00;95384.41;5059348;28;20194;-88
2024/04/02 08:31:55;;;;;;;3.10;0.70;;;;;;;8.83;99.21;95389.63;5058828;28;20205;-88
2024/04/02 08:34:22;;;;;;;2.17;0.50;;;;;;;8.83;98.71;95376.47;5057690;28;20204;-88
2024/04/02 08:36:48;;;;;;;3.73;0.50;;;;;;;8.65;97.07;95386.91;5058989;28;20225;-88
2024/04/02 08:39:15;;;;;;;0.77;0.40;;;;;;;8.76;96.91;95394.09;5061927;28;20190;-87
2024/04/02 08:41:40;;;;;;;3.13;0.50;;;;;;;8.92;96.06;95382.25;5060711;28;20194;-87
2024/04/02 08:44:07;;;;;;;2.60;0.63;;;;;;;9.16;95.32;95386.75;5060763;28;20267;-87
2024/04/02 08:46:33;;;;;;;1.73;0.50;;;;;;;9.17;95.60;95385.69;5060546;28;20257;-88
2024/04/02 08:49:01;;;;;;;3.10;0.70;;;;;;;9.12;92.89;95393.44;5058447;28;20657;-90
2024/04/02 08:51:27;;;;;;;0.63;0.40;;;;;;;9.07;91.86;95395.09;5053854;28;20197;-89
2024/04/02 08:53:54;;;;;;;1.80;0.43;;;;;;;9.15;92.48;95394.84;5055031;28;20562;-89
2024/04/02 08:56:20;;;;;;;1.83;0.53;;;;;;;9.43;92.69;95395.19;5056739;28;20299;-88
2024/04/02 08:58:47;;;;;;;1.90;0.40;;;;;;;9.47;91.64;95396.38;5058860;28;20189;-88
2024/04/02 09:01:13;;;;;;;3.00;0.73;;;;;;;9.64;91.65;95387.72;5060152;28;20198;-87
2024/04/02 09:03:40;;;;;;;1.53;0.63;;;;;;;9.69;90.93;95403.63;5058557;28;20220;-87
2024/04/02 09:06:07;;;;;;;2.80;0.50;;;;;;;9.70;90.22;95392.13;5060411;28;20194;-87
2024/04/02 09:08:43;;;;;;;1.47;0.40;;;;;;;10.15;88.90;95389.22;5060325;28;20192;-87
2024/04/02 09:11:09;;;;;;;3.97;0.80;;;;;;;10.15;87.69;95387.38;5058702;28;20251;-87
2024/04/02 09:13:35;;;;;;;2.87;0.67;;;;;;;9.97;85.85;95390.00;5066576;28;20257;-87
2024/04/02 09:16:01;;;;;;;0.67;0.30;;;;;;;9.78;86.22;95395.47;5065201;28;20186;-87
2024/04/02 09:18:31;;;;;;;2.43;0.70;;;;;;;9.39;83.11;95397.47;5057908;28;20242;-88
2024/04/02 09:20:59;;;;;;;3.50;0.60;;;;;;;9.45;84.37;95404.47;5058241;28;20202;-87
2024/04/02 09:23:27;;;;;;;3.43;0.60;;;;;;;9.63;84.50;95377.41;5059162;28;20217;-86
2024/04/02 09:25:53;;;;;;;4.60;0.67;;;;;;;9.82;83.85;95396.66;5059578;28;20198;-87
2024/04/02 09:28:20;;;;;;;6.07;0.67;;;;;;;9.81;82.89;95387.94;5057991;28;20213;-87
2024/04/02 09:30:46;;;;;;;2.23;0.57;;;;;;;10.07;83.86;95387.66;5059410;28;20189;-88
2024/04/02 09:33:13;;;;;;;2.07;0.77;;;;;;;10.20;83.50;95374.38;5058501;28;20235;-87
2024/04/02 09:35:53;;;;;;;2.13;0.60;;;;;;;10.46;80.50;95377.69;5060105;28;20612;-88
2024/04/02 09:38:20;;;;;;;1.67;0.57;;;;;;;10.45;78.09;95373.47;5060032;28;20217;-88
2024/04/02 09:40:48;;;;;;;1.90;0.70;;;;;;;10.46;78.25;95385.56;5059604;28;20208;-88
2024/04/02 09:43:15;;;;;;;3.53;0.90;;;;;;;10.41;78.67;95394.16;5060513;28;20669;-87
2024/04/02 09:45:42;;;;;;;2.10;0.50;;;;;;;10.45;79.21;95389.25;5058229;28;20189;-87
2024/04/02 09:48:09;;;;;;;3.57;0.93;;;;;;;10.47;78.28;95395.09;5060538;28;20582;-87
2024/04/02 09:50:35;;;;;;;2.50;0.80;;;;;;;10.67;78.70;95385.09;5060959;28;20186;-88
2024/04/02 09:53:01;;;;;;;2.53;0.60;;;;;;;10.68;77.14;95397.25;5060328;28;20219;-87
2024/04/02 09:55:27;;;;;;;2.03;0.70;;;;;;;10.92;77.82;95393.66;5060434;28;20195;-88
2024/04/02 09:57:56;;;;;;;1.87;0.40;;;;;;;10.73;74.04;95386.84;5059007;28;20229;-87
2024/04/02 10:00:22;;;;;;;2.67;0.67;;;;;;;10.46;72.20;95396.91;5061431;28;20196;-88
2024/04/02 10:02:49;;;;;;;1.40;0.57;;;;;;;10.35;73.95;95403.75;5059315;28;20197;-86
2024/04/02 10:05:17;;;;;;;5.00;0.70;;;;;;;10.73;73.53;95392.13;5058233;28;20266;-88
2024/04/02 10:07:44;;;;;;;1.53;0.60;;;;;;;10.92;72.86;95398.94;5060877;28;20280;-86
2024/04/02 10:10:10;;;;;;;1.17;0.47;;;;;;;10.93;74.78;95401.34;5057243;28;20224;-86
2024/04/02 10:12:38;;;;;;;1.87;0.47;;;;;;;10.83;74.01;95402.88;5057815;28;20193;-88
2024/04/02 10:15:09;;;;;;;2.70;0.60;;;;;;;10.71;73.84;95400.22;5058309;28;20201;-88
2024/04/02 10:17:36;;;;;;;1.70;0.80;;;;;;;10.83;76.13;95419.50;5058790;28;20229;-88
2024/04/02 10:20:02;;;;;;;4.07;0.90;;;;;;;11.25;77.27;95409.75;5059836;28;20247;-88
2024/04/02 10:22:31;;;;;;;3.40;0.70;;;;;;;11.34;76.64;95397.06;5058862;28;20197;-89
2024/04/02 10:25:06;;;;;;;2.80;0.80;;;;;;;11.36;75.83;95398.44;5059151;28;20197;-88
2024/04/02 10:27:36;;;;;;;4.23;0.70;;;;;;;11.11;74.58;95384.63;5060241;28;20220;-88
2024/04/02 10:30:02;;;;;;;2.70;0.60;;;;;;;11.13;74.67;95397.59;5062892;28;20198;-88
2024/04/02 10:32:34;;;;;;;4.40;1.40;;;;;;;10.99;73.71;95386.47;5063393;28;20189;-88
2024/04/02 10:35:00;;;;;;;3.23;0.73;;;;;;;10.96;72.84;95392.19;5066696;28;20223;-86
2024/04/02 10:37:26;;;;;;;3.37;0.97;;;;;;;10.93;71.16;95393.44;5067754;28;20685;-88
2024/04/02 10:39:52;;;;;;;1.87;0.40;;;;;;;11.39;71.93;95384.00;5058881;28;20201;-88
2024/04/02 10:42:19;;;;;;;1.27;0.40;;;;;;;11.51;69.38;95382.16;5058378;28;20650;-88
2024/04/02 10:44:45;;;;;;;6.63;0.90;;;;;;;11.17;70.73;95404.84;5057264;28;20653;-88
2024/04/02 10:47:17;;;;;;;2.37;0.60;;;;;;;10.77;74.38;95414.34;5059280;28;20263;-88
2024/04/02 10:49:48;;;;;;;2.17;0.80;;;;;;;10.59;80.09;95440.72;5058588;28;20247;-87
2024/04/02 10:52:15;;;;;;;2.90;0.63;;;;;;;9.85;80.62;95446.97;5058944;28;20189;-87
2024/04/02 10:54:41;;;;;;;4.40;0.50;;;;;;;9.92;85.45;95449.56;5059895;28;20198;-88
2024/04/02 10:57:08;;;;;;;1.33;0.57;;;;;;;9.72;84.70;95437.41;5056757;28;20214;-91
2024/04/02 10:59:36;;;;;;;2.60;0.83;;;;;;;9.65;85.96;95438.47;5057987;28;20658;-89
2024/04/02 11:02:09;;;;;;;4.10;0.63;;;;;;;9.77;84.35;95439.38;5057344;28;20185;-88
2024/04/02 11:04:35;;;;;;;0.50;0.40;;;;;;;9.90;84.06;95427.91;5059420;28;20215;-88
2024/04/02 11:07:03;;;;;;;1.40;0.47;;;;;;;10.01;83.40;95430.63;5059436;28;20209;-87
2024/04/02 11:09:30;;;;;;;3.93;0.67;;;;;;;10.03;84.38;95436.50;5061410;28;20193;-86
2024/04/02 11:11:58;;;;;;;2.13;0.80;;;;;;;9.95;85.01;95433.31;5059337;28;20538;-87
2024/04/02 11:14:26;;;;;;;3.27;0.70;;;;;;;10.03;85.37;95439.13;5058767;28;20781;-87
2024/04/02 11:16:52;;;;;;;2.43;0.70;;;;;;;10.18;85.16;95436.13;5058732;28;20229;-87
2024/04/02 11:19:18;;;;;;;2.33;0.93;;;;;;;10.40;84.99;95432.84;5057888;28;20190;-87
2024/04/02 11:21:45;;;;;;;1.20;0.57;;;;;;;10.68;82.59;95434.13;5058694;28;20273;-87
2024/04/02 11:27:02;;;;;;;0.93;0.40;;;;;;;10.76;79.95;95441.72;5058735;28;20210;-86
2024/04/02 11:29:29;;;;;;;2.43;0.73;;;;;;;10.69;78.91;95431.25;5057391;28;20201;-87
2024/04/02 11:31:54;;;;;;;3.50;0.50;;;;;;;10.95;79.58;95428.25;5058768;28;20645;-87
2024/04/02 11:34:21;;;;;;;3.17;0.30;;;;;;;11.10;77.71;95425.22;5058601;28;20252;-87